Time;durP1;ratioP1;P1;durP2;ratioP2;P2;SDS_P1;SDS_P2;PMS_P1;PMS_P2;Temp;Humidity;BMP_temperature;BMP_pressure;BME280_temperature;BME280_humidity;BME280_pressure;Samples;Min_cycle;Max_cycle;Signal;HPM_P1;HPM_P2
2022/06/07 00:00:01;;;;;;;0.60;0.10;;;19.60;99.90;;;;;;5054055;28;20441;-76
2022/06/07 00:02:30;;;;;;;0.60;0.20;;;19.50;99.90;;;;;;5161655;23;20498;-71
2022/06/07 00:04:58;;;;;;;0.60;0.10;;;19.50;99.90;;;;;;5042545;28;20884;-71
2022/06/07 00:07:28;;;;;;;0.60;0.10;;;19.40;99.90;;;;;;5046269;28;20448;-71
2022/06/07 00:09:56;;;;;;;0.60;0.10;;;19.40;99.90;;;;;;5046866;28;20924;-71
2022/06/07 00:12:25;;;;;;;0.60;0.20;;;19.40;99.90;;;;;;5053750;28;20979;-72
2022/06/07 00:14:53;;;;;;;0.60;0.10;;;19.30;99.90;;;;;;5062760;28;20442;-73
2022/06/07 00:17:22;;;;;;;0.60;0.20;;;19.30;99.90;;;;;;5070614;28;20990;-72
2022/06/07 00:19:49;;;;;;;0.60;0.10;;;19.30;99.90;;;;;;5071154;28;20943;-72
2022/06/07 00:22:17;;;;;;;0.60;0.20;;;19.00;99.90;;;;;;5071948;28;20871;-70
2022/06/07 00:24:46;;;;;;;0.60;0.10;;;19.00;99.90;;;;;;5070312;28;20847;-73
2022/06/07 00:27:15;;;;;;;0.90;0.50;;;19.00;99.90;;;;;;5060892;28;20435;-71
2022/06/07 00:29:46;;;;;;;0.60;0.10;;;18.90;99.90;;;;;;5071415;28;20441;-72
2022/06/07 00:32:16;;;;;;;0.60;0.13;;;18.90;99.90;;;;;;5071660;28;20465;-71
2022/06/07 00:34:44;;;;;;;0.60;0.10;;;18.90;99.90;;;;;;5070366;28;20440;-72
2022/06/07 00:37:12;;;;;;;0.60;0.10;;;19.00;99.90;;;;;;5070559;28;20489;-71
2022/06/07 00:39:40;;;;;;;0.60;0.10;;;19.20;99.90;;;;;;5071310;28;20449;-70
2022/06/07 00:42:10;;;;;;;0.60;0.10;;;19.40;99.90;;;;;;5071996;28;20569;-72
2022/06/07 00:44:40;;;;;;;0.60;0.20;;;19.40;99.90;;;;;;5072548;28;20442;-72
2022/06/07 00:47:11;;;;;;;0.60;0.10;;;19.40;99.90;;;;;;5070807;28;20815;-71
2022/06/07 00:49:44;;;;;;;0.60;0.10;;;19.30;99.90;;;;;;5070913;28;20475;-72
2022/06/07 00:52:12;;;;;;;0.60;0.10;;;19.40;99.90;;;;;;5070559;28;20458;-71
2022/06/07 00:54:40;;;;;;;0.60;0.10;;;19.50;99.90;;;;;;5070375;28;20441;-73
2022/06/07 00:57:10;;;;;;;0.60;0.10;;;19.50;99.90;;;;;;5070693;28;20812;-74
2022/06/07 00:59:38;;;;;;;0.60;0.10;;;19.40;99.90;;;;;;5070847;28;20900;-73
2022/06/07 01:02:07;;;;;;;0.70;0.20;;;19.10;99.90;;;;;;5070889;28;20466;-72
2022/06/07 01:04:35;;;;;;;0.60;0.10;;;19.00;99.90;;;;;;5070896;28;20453;-73
2022/06/07 01:12:37;;;;;;;0.60;0.10;;;19.20;99.90;;;;;;5070627;28;20471;-70
2022/06/07 01:15:06;;;;;;;0.60;0.10;;;19.20;99.90;;;;;;5070766;28;20450;-72
2022/06/07 01:17:34;;;;;;;0.60;0.10;;;19.40;99.90;;;;;;5070486;28;20477;-73
2022/06/07 01:20:02;;;;;;;0.60;0.10;;;;;;;;;;5070498;28;20916;-73
2022/06/07 01:22:31;;;;;;;0.60;0.20;;;19.30;99.90;;;;;;5070257;28;20473;-73
2022/06/07 01:24:59;;;;;;;0.60;0.20;;;19.30;99.90;;;;;;5070951;28;20453;-72
2022/06/07 01:27:27;;;;;;;0.60;0.10;;;19.20;99.90;;;;;;5063827;28;20438;-72
2022/06/07 01:29:55;;;;;;;0.60;0.10;;;19.00;99.90;;;;;;5053890;28;20481;-71
2022/06/07 01:32:24;;;;;;;0.60;0.10;;;19.00;99.90;;;;;;5053840;28;20806;-72
2022/06/07 01:34:53;;;;;;;0.60;0.10;;;18.90;99.90;;;;;;5053478;28;20442;-72
2022/06/07 01:37:21;;;;;;;0.60;0.20;;;18.90;99.90;;;;;;5053231;28;20954;-71
2022/06/07 01:42:35;;;;;;;0.60;0.20;;;18.60;99.90;;;;;;5071122;28;20471;-70
2022/06/07 01:45:04;;;;;;;0.60;0.10;;;18.60;99.90;;;;;;5053623;28;20443;-74
2022/06/07 01:47:34;;;;;;;0.60;0.10;;;18.50;99.90;;;;;;5053640;28;20446;-72
2022/06/07 01:50:03;;;;;;;0.60;0.10;;;18.50;99.90;;;;;;5053184;28;20525;-73
2022/06/07 01:52:33;;;;;;;0.60;0.20;;;18.40;99.90;;;;;;5053382;28;20864;-71
2022/06/07 01:55:03;;;;;;;0.60;0.10;;;18.30;99.90;;;;;;5053250;28;20438;-71
2022/06/07 01:57:31;;;;;;;0.60;0.10;;;18.30;99.90;;;;;;5066362;28;20953;-72
2022/06/07 02:00:00;;;;;;;0.60;0.10;;;18.40;99.90;;;;;;5073375;28;20503;-71
2022/06/07 02:02:28;;;;;;;0.60;0.10;;;18.50;99.90;;;;;;5070928;28;20478;-72
2022/06/07 02:04:57;;;;;;;3.90;3.60;;;18.50;99.90;;;;;;5072784;28;20456;-72
2022/06/07 02:07:25;;;;;;;0.60;0.20;;;18.60;99.90;;;;;;5072899;28;20433;-73
2022/06/07 02:09:53;;;;;;;0.60;0.10;;;18.60;99.90;;;;;;5072833;28;20447;-72
2022/06/07 02:12:22;;;;;;;0.60;0.10;;;18.70;99.90;;;;;;5073066;28;20967;-72
2022/06/07 02:14:50;;;;;;;0.60;0.20;;;18.70;99.90;;;;;;5073201;28;20448;-72
2022/06/07 02:17:18;;;;;;;0.60;0.10;;;18.80;99.90;;;;;;5073795;28;20478;-73
2022/06/07 02:19:46;;;;;;;0.60;0.10;;;18.90;99.90;;;;;;5073519;28;20441;-72
2022/06/07 02:22:14;;;;;;;0.60;0.10;;;18.80;99.90;;;;;;5073210;28;20469;-71
2022/06/07 02:24:42;;;;;;;0.60;0.10;;;18.80;99.90;;;;;;5072641;28;20445;-71
2022/06/07 02:27:13;;;;;;;0.60;0.10;;;18.70;99.90;;;;;;5065538;28;20443;-71
2022/06/07 02:29:45;;;;;;;0.60;0.10;;;18.70;99.90;;;;;;5053630;28;20476;-71
2022/06/07 02:32:18;;;;;;;0.60;0.10;;;18.90;99.90;;;;;;5053492;28;20470;-72
2022/06/07 02:34:51;;;;;;;0.60;0.10;;;19.00;99.90;;;;;;5052248;28;20928;-72
2022/06/07 02:37:21;;;;;;;0.60;0.10;;;19.10;99.90;;;;;;5052009;28;20438;-71
2022/06/07 02:39:49;;;;;;;0.60;0.10;;;19.10;99.90;;;;;;5052446;28;20789;-73
2022/06/07 02:42:21;;;;;;;0.60;0.10;;;19.10;99.90;;;;;;5052228;28;20473;-72
2022/06/07 02:44:50;;;;;;;0.60;0.10;;;19.10;99.90;;;;;;5051717;28;20449;-73
2022/06/07 02:47:18;;;;;;;0.60;0.10;;;19.00;99.90;;;;;;5051603;28;20450;-71
2022/06/07 02:49:45;;;;;;;1.20;0.77;;;18.90;99.90;;;;;;5052151;28;20465;-72
2022/06/07 02:52:13;;;;;;;0.60;0.20;;;19.00;99.90;;;;;;5051722;28;20489;-73
2022/06/07 02:54:41;;;;;;;0.60;0.20;;;19.00;99.90;;;;;;5051906;28;20454;-73
2022/06/07 02:57:09;;;;;;;0.60;0.10;;;19.00;99.90;;;;;;5051742;28;20438;-73
2022/06/07 02:59:37;;;;;;;0.60;0.10;;;19.00;99.90;;;;;;5051856;28;20474;-73
2022/06/07 03:02:06;;;;;;;0.60;0.20;;;18.60;99.90;;;;;;5051548;28;20466;-72
2022/06/07 03:04:34;;;;;;;0.60;0.10;;;18.60;99.90;;;;;;5051558;28;20541;-71
2022/06/07 03:07:03;;;;;;;0.60;0.10;;;18.40;99.90;;;;;;5051821;28;20450;-72
2022/06/07 03:09:30;;;;;;;0.60;0.10;;;18.30;99.90;;;;;;5058330;28;20443;-72
2022/06/07 03:11:58;;;;;;;0.60;0.10;;;18.50;99.90;;;;;;5051637;28;20474;-71
2022/06/07 03:14:26;;;;;;;0.60;0.13;;;18.50;99.90;;;;;;5051905;28;20454;-72
2022/06/07 03:16:57;;;;;;;0.60;0.10;;;18.70;99.90;;;;;;5051061;28;20447;-72
2022/06/07 03:19:28;;;;;;;0.60;0.10;;;18.80;99.90;;;;;;5051648;28;20488;-72
2022/06/07 03:21:56;;;;;;;0.60;0.10;;;19.00;99.90;;;;;;5051768;28;20493;-72
2022/06/07 03:24:25;;;;;;;0.60;0.10;;;19.00;99.90;;;;;;5051460;28;20446;-73
2022/06/07 03:26:53;;;;;;;0.60;0.10;;;19.00;99.90;;;;;;5055842;28;20778;-72
2022/06/07 03:29:21;;;;;;;0.60;0.10;;;19.00;99.90;;;;;;5071308;28;20557;-73
2022/06/07 03:31:49;;;;;;;0.60;0.10;;;18.80;99.90;;;;;;5071048;28;20437;-73
2022/06/07 03:34:17;;;;;;;0.60;0.10;;;18.80;99.90;;;;;;5071095;28;20477;-72
2022/06/07 03:36:46;;;;;;;0.60;0.20;;;18.70;99.90;;;;;;5071145;28;20442;-72
2022/06/07 03:39:14;;;;;;;0.60;0.20;;;18.80;99.90;;;;;;5071079;28;20484;-72
2022/06/07 03:41:42;;;;;;;0.60;0.13;;;18.70;99.90;;;;;;5071220;28;20452;-72
2022/06/07 03:44:10;;;;;;;0.60;0.20;;;18.50;99.90;;;;;;5070594;28;20452;-73
2022/06/07 03:46:38;;;;;;;0.60;0.10;;;18.50;99.90;;;;;;5071383;28;20460;-73
2022/06/07 03:49:06;;;;;;;0.60;0.10;;;18.40;99.90;;;;;;5070539;28;20931;-73
2022/06/07 03:51:34;;;;;;;0.60;0.20;;;18.40;99.90;;;;;;5071057;28;20997;-72
2022/06/07 03:54:04;;;;;;;0.60;0.10;;;18.40;99.90;;;;;;5070940;28;20469;-71
2022/06/07 03:56:34;;;;;;;0.60;0.10;;;18.40;99.90;;;;;;5070601;28;20441;-73
2022/06/07 03:59:02;;;;;;;0.60;0.10;;;18.40;99.90;;;;;;5070877;28;20488;-72
2022/06/07 04:01:30;;;;;;;0.60;0.10;;;18.50;99.90;;;;;;5071018;28;21034;-72
2022/06/07 04:04:04;;;;;;;0.60;0.10;;;18.40;99.90;;;;;;5070941;28;20488;-70
2022/06/07 04:06:35;;;;;;;0.60;0.10;;;18.20;99.90;;;;;;5070462;28;20505;-72
2022/06/07 04:09:05;;;;;;;0.60;0.10;;;18.20;99.90;;;;;;5071085;28;20433;-73
2022/06/07 04:11:34;;;;;;;0.60;0.20;;;18.20;99.90;;;;;;5071698;28;20468;-73
2022/06/07 04:14:02;;;;;;;0.60;0.10;;;18.40;99.90;;;;;;5071845;28;20556;-72
2022/06/07 04:16:32;;;;;;;0.60;0.10;;;18.50;99.90;;;;;;5072611;28;20460;-72
2022/06/07 04:19:00;;;;;;;0.60;0.17;;;18.60;99.90;;;;;;5072085;28;20484;-72
2022/06/07 04:21:28;;;;;;;0.60;0.10;;;18.70;99.90;;;;;;5070982;28;20440;-72
2022/06/07 04:23:56;;;;;;;0.60;0.10;;;18.70;99.90;;;;;;5070781;28;20576;-71
2022/06/07 04:26:28;;;;;;;0.60;0.10;;;18.70;99.90;;;;;;5069767;28;20445;-73
2022/06/07 04:28:58;;;;;;;0.60;0.20;;;18.70;99.90;;;;;;5051560;28;20438;-72
2022/06/07 04:31:27;;;;;;;0.60;0.20;;;18.60;99.90;;;;;;5057677;28;20461;-72
2022/06/07 04:33:56;;;;;;;0.60;0.10;;;18.50;99.90;;;;;;5068446;28;20481;-72
2022/06/07 04:36:26;;;;;;;0.60;0.20;;;18.50;99.90;;;;;;5071824;28;20632;-73
2022/06/07 04:38:56;;;;;;;0.60;0.10;;;18.50;99.90;;;;;;5063304;28;20480;-72
2022/06/07 04:41:26;;;;;;;0.60;0.10;;;18.40;99.90;;;;;;5071528;28;20978;-73
2022/06/07 04:43:55;;;;;;;0.60;0.10;;;18.40;99.90;;;;;;5071749;28;20470;-73
2022/06/07 04:46:25;;;;;;;0.60;0.13;;;18.30;99.90;;;;;;5055066;28;20489;-76
2022/06/07 04:48:53;;;;;;;0.60;0.10;;;18.20;99.90;;;;;;5057561;28;20453;-75
2022/06/07 04:51:24;;;;;;;0.60;0.20;;;18.20;99.90;;;;;;5062825;28;20446;-73
2022/06/07 04:53:53;;;;;;;0.60;0.20;;;18.10;99.90;;;;;;5055600;28;20477;-74
2022/06/07 04:56:25;;;;;;;0.60;0.10;;;18.10;99.90;;;;;;5049991;28;20937;-75
2022/06/07 04:58:54;;;;;;;0.60;0.20;;;18.10;99.90;;;;;;5051143;28;20481;-74
2022/06/07 05:01:25;;;;;;;0.60;0.10;;;18.10;99.90;;;;;;5053863;28;20442;-74
2022/06/07 05:03:54;;;;;;;0.60;0.20;;;18.10;99.90;;;;;;5060733;28;20520;-73
2022/06/07 05:06:24;;;;;;;0.80;0.50;;;18.00;99.90;;;;;;5069691;28;20445;-73
2022/06/07 05:08:54;;;;;;;0.60;0.30;;;17.90;99.90;;;;;;5069991;28;20433;-73
2022/06/07 05:11:22;;;;;;;0.60;0.20;;;17.90;99.90;;;;;;5074451;28;20521;-74
2022/06/07 05:13:55;;;;;;;0.60;0.20;;;17.80;99.90;;;;;;5073937;28;20468;-74
2022/06/07 05:16:23;;;;;;;0.83;0.63;;;17.80;99.90;;;;;;5074026;28;20457;-74
2022/06/07 05:18:52;;;;;;;0.60;0.10;;;17.60;99.90;;;;;;5083269;28;20525;-74
2022/06/07 05:21:21;;;;;;;1.87;0.40;;;17.60;99.90;;;;;;5068922;28;20455;-73
2022/06/07 05:23:49;;;;;;;0.60;0.20;;;17.70;99.90;;;;;;5073749;28;20991;-73
2022/06/07 05:26:23;;;;;;;0.60;0.10;;;17.60;99.90;;;;;;5073099;28;20452;-73
2022/06/07 05:28:52;;;;;;;0.60;0.20;;;17.60;99.90;;;;;;5054124;28;20459;-71
2022/06/07 05:31:21;;;;;;;0.60;0.10;;;17.60;99.90;;;;;;5054158;28;20450;-71
2022/06/07 05:33:49;;;;;;;0.60;0.10;;;17.60;99.90;;;;;;5054242;28;20466;-72
2022/06/07 05:36:17;;;;;;;0.80;0.50;;;17.70;99.90;;;;;;5053688;28;20442;-71
2022/06/07 05:38:47;;;;;;;0.60;0.10;;;17.80;99.90;;;;;;5053211;28;20447;-70
2022/06/07 05:41:20;;;;;;;0.60;0.10;;;17.80;99.90;;;;;;5053961;28;20549;-71
2022/06/07 05:43:48;;;;;;;0.60;0.10;;;17.90;99.90;;;;;;5053806;28;20461;-71
2022/06/07 05:46:17;;;;;;;0.60;0.20;;;17.80;99.90;;;;;;5053588;28;20449;-72
2022/06/07 05:48:46;;;;;;;0.60;0.10;;;17.90;99.90;;;;;;5054004;28;20518;-72
2022/06/07 05:51:15;;;;;;;0.60;0.10;;;17.90;99.90;;;;;;5053726;28;20442;-72
2022/06/07 05:53:43;;;;;;;0.60;0.20;;;18.00;99.90;;;;;;5055775;28;20959;-72
2022/06/07 05:56:13;;;;;;;0.60;0.10;;;18.00;99.90;;;;;;5070773;28;20522;-72
2022/06/07 05:58:41;;;;;;;0.60;0.20;;;18.00;99.90;;;;;;5064363;28;20445;-72
2022/06/07 06:01:10;;;;;;;0.60;0.10;;;;;;;;;;5072496;28;21022;-71
2022/06/07 06:03:40;;;;;;;0.60;0.17;;;18.20;99.90;;;;;;5072653;28;20493;-73
2022/06/07 06:06:10;;;;;;;0.60;0.10;;;18.20;99.90;;;;;;5072663;28;20445;-72
2022/06/07 06:11:26;;;;;;;0.60;0.20;;;18.30;99.90;;;;;;5072945;28;20962;-74
2022/06/07 06:13:55;;;;;;;0.60;0.10;;;18.30;99.90;;;;;;5062665;28;20485;-73
2022/06/07 06:16:23;;;;;;;0.60;0.10;;;18.40;99.90;;;;;;5065399;28;20443;-74
2022/06/07 06:18:53;;;;;;;0.60;0.10;;;18.40;99.90;;;;;;5065449;28;20522;-73
2022/06/07 06:21:24;;;;;;;0.60;0.27;;;18.50;99.90;;;;;;5068702;28;21008;-74
2022/06/07 06:23:52;;;;;;;0.60;0.10;;;18.50;99.90;;;;;;5068909;28;20488;-75
2022/06/07 06:26:21;;;;;;;0.60;0.20;;;18.50;99.90;;;;;;5070270;28;20537;-73
2022/06/07 06:28:49;;;;;;;0.60;0.10;;;18.60;99.90;;;;;;5072725;28;20448;-73
2022/06/07 06:31:19;;;;;;;0.67;0.43;;;18.70;99.90;;;;;;5064050;28;20956;-73
2022/06/07 06:33:49;;;;;;;0.60;0.20;;;18.80;99.90;;;;;;5073033;28;20466;-74
2022/06/07 06:36:19;;;;;;;0.60;0.10;;;18.90;99.90;;;;;;5065477;28;20960;-74
2022/06/07 06:38:48;;;;;;;0.60;0.10;;;19.00;99.90;;;;;;5065244;28;20778;-74
2022/06/07 06:41:19;;;;;;;0.60;0.10;;;19.20;99.90;;;;;;5088941;23;20495;-69
2022/06/07 06:43:48;;;;;;;0.60;0.10;;;19.20;99.90;;;;;;5046150;28;20544;-70
2022/06/07 06:46:22;;;;;;;0.60;0.10;;;19.40;99.90;;;;;;5054345;28;20450;-72
2022/06/07 06:48:50;;;;;;;0.70;0.40;;;19.50;99.90;;;;;;5055306;28;20923;-71
2022/06/07 06:51:21;;;;;;;0.60;0.20;;;19.50;99.90;;;;;;5055726;28;20469;-70
2022/06/07 06:53:51;;;;;;;1.37;0.30;;;19.60;99.90;;;;;;5069066;28;20448;-72
2022/06/07 06:56:21;;;;;;;0.60;0.20;;;19.70;99.90;;;;;;5074996;28;20788;-69
2022/06/07 06:58:50;;;;;;;0.60;0.20;;;19.70;99.90;;;;;;5075553;28;20536;-71
2022/06/07 07:01:22;;;;;;;0.60;0.10;;;19.80;99.90;;;;;;5074842;28;20486;-70
2022/06/07 07:03:51;;;;;;;0.60;0.10;;;19.80;99.90;;;;;;5075023;28;20461;-68
2022/06/07 07:06:20;;;;;;;0.63;0.20;;;19.80;99.90;;;;;;5074446;28;20456;-67
2022/06/07 07:08:50;;;;;;;0.60;0.10;;;19.70;99.90;;;;;;5074232;28;20529;-69
2022/06/07 07:11:21;;;;;;;0.60;0.20;;;19.60;99.90;;;;;;5074813;28;20453;-70
2022/06/07 07:13:50;;;;;;;0.70;0.20;;;19.60;99.90;;;;;;5074105;28;20469;-69
2022/06/07 07:16:21;;;;;;;0.60;0.20;;;19.60;99.90;;;;;;5072382;28;20895;-68
2022/06/07 07:18:50;;;;;;;0.70;0.27;;;19.60;99.90;;;;;;5072704;28;20449;-68
2022/06/07 07:21:20;;;;;;;0.70;0.30;;;19.50;99.90;;;;;;5073338;28;20569;-69
2022/06/07 07:23:49;;;;;;;0.60;0.20;;;19.50;99.90;;;;;;5073845;28;20453;-70
2022/06/07 07:26:20;;;;;;;0.80;0.30;;;19.60;99.90;;;;;;5074187;28;20913;-71
2022/06/07 07:28:54;;;;;;;0.60;0.10;;;19.60;99.90;;;;;;5054221;28;20446;-70
2022/06/07 07:31:24;;;;;;;0.60;0.10;;;19.60;99.90;;;;;;5053913;28;20472;-69
2022/06/07 07:33:53;;;;;;;0.60;0.10;;;19.60;99.90;;;;;;5065323;28;20956;-70
2022/06/07 07:36:22;;;;;;;0.60;0.10;;;19.70;99.90;;;;;;5066615;28;20486;-76
2022/06/07 07:38:51;;;;;;;0.60;0.10;;;20.10;99.90;;;;;;5077061;28;20534;-79
2022/06/07 07:41:23;;;;;;;0.80;0.30;;;20.10;99.90;;;;;;5073174;28;20850;-80
2022/06/07 07:43:53;;;;;;;0.60;0.10;;;20.10;99.90;;;;;;5064943;28;20450;-78
2022/06/07 07:46:23;;;;;;;0.63;0.17;;;19.90;99.90;;;;;;5057739;28;20442;-79
2022/06/07 07:48:51;;;;;;;1.03;0.87;;;19.90;99.90;;;;;;5059035;28;20431;-77
2022/06/07 07:51:21;;;;;;;0.70;0.20;;;19.80;99.90;;;;;;5059735;28;20461;-81
2022/06/07 07:53:53;;;;;;;0.70;0.20;;;19.90;99.90;;;;;;5070152;28;20462;-81
2022/06/07 07:56:22;;;;;;;0.60;0.20;;;19.90;99.90;;;;;;5069468;28;20502;-80
2022/06/07 07:58:51;;;;;;;0.70;0.20;;;19.90;99.90;;;;;;5061228;28;20545;-80
2022/06/07 08:01:22;;;;;;;0.70;0.20;;;20.10;99.90;;;;;;5059939;28;20542;-81
2022/06/07 08:03:52;;;;;;;0.70;0.33;;;20.10;99.90;;;;;;5058730;28;20481;-79
2022/06/07 08:06:23;;;;;;;0.70;0.23;;;20.20;99.90;;;;;;5056593;28;20442;-79
2022/06/07 08:08:54;;;;;;;0.60;0.10;;;20.10;99.90;;;;;;5064759;28;20549;-81
2022/06/07 08:11:25;;;;;;;0.60;0.10;;;20.20;99.90;;;;;;5065769;28;21040;-82
2022/06/07 08:13:54;;;;;;;0.67;0.20;;;20.40;99.90;;;;;;5061940;28;20466;-81
2022/06/07 08:16:23;;;;;;;0.70;0.20;;;20.50;99.90;;;;;;5069824;28;20453;-81
2022/06/07 08:18:51;;;;;;;0.70;0.20;;;20.50;99.90;;;;;;5059785;28;20480;-79
2022/06/07 08:21:22;;;;;;;0.60;0.10;;;20.50;99.90;;;;;;5060756;28;20516;-80
2022/06/07 08:23:52;;;;;;;0.60;0.10;;;20.50;99.90;;;;;;5060285;28;20857;-79
2022/06/07 08:26:21;;;;;;;1.83;1.33;;;20.50;99.90;;;;;;5060524;28;20455;-79
2022/06/07 08:28:50;;;;;;;0.60;0.10;;;20.50;99.90;;;;;;5085331;28;20512;-79
2022/06/07 08:31:20;;;;;;;2.00;1.07;;;20.60;99.90;;;;;;5092127;28;20552;-80
2022/06/07 08:39:22;;;;;;;0.70;0.20;;;21.00;99.90;;;;;;5084818;28;20445;-79
2022/06/07 08:41:55;;;;;;;0.70;0.20;;;21.10;99.90;;;;;;5086894;28;20482;-80
2022/06/07 08:44:28;;;;;;;0.70;0.10;;;21.10;99.90;;;;;;5085451;28;20466;-80
2022/06/07 08:47:05;;;;;;;0.70;0.30;;;21.10;99.90;;;;;;5075235;28;20448;-81
2022/06/07 08:49:35;;;;;;;0.70;0.20;;;21.10;99.90;;;;;;5085479;28;20453;-82
2022/06/07 08:52:12;;;;;;;0.70;0.20;;;21.10;99.90;;;;;;5084031;28;20999;-80
2022/06/07 08:54:42;;;;;;;0.70;0.10;;;21.10;99.90;;;;;;5084731;28;20513;-80
2022/06/07 08:57:21;;;;;;;0.70;0.30;;;21.10;99.90;;;;;;5085422;28;20487;-82
2022/06/07 08:59:50;;;;;;;0.70;0.20;;;21.30;99.90;;;;;;5070686;28;20431;-83
2022/06/07 09:02:41;;;;;;;0.70;0.10;;;21.50;99.90;;;;;;5061007;28;20539;-80
2022/06/07 09:05:12;;;;;;;0.70;0.20;;;21.60;99.90;;;;;;5060965;28;20541;-80
2022/06/07 09:07:41;;;;;;;0.70;0.20;;;21.40;99.90;;;;;;5064626;28;20489;-81
2022/06/07 09:13:05;;;;;;;0.70;0.20;;;21.50;99.90;;;;;;5065369;28;20466;-81
2022/06/07 09:15:36;;;;;;;0.70;0.20;;;21.50;99.90;;;;;;5074805;28;20427;-82
2022/06/07 09:18:07;;;;;;;0.70;0.13;;;21.50;99.90;;;;;;5075680;28;20450;-80
2022/06/07 09:20:39;;;;;;;0.70;0.10;;;21.60;99.90;;;;;;5075642;28;20446;-81
2022/06/07 09:23:15;;;;;;;0.70;0.10;;;21.90;99.90;;;;;;5072524;28;20996;-81
2022/06/07 09:25:48;;;;;;;0.70;0.10;;;21.90;99.90;;;;;;5068329;28;20869;-85
2022/06/07 09:28:23;;;;;;;0.70;0.10;;;21.80;99.90;;;;;;5087245;28;20433;-80
2022/06/07 09:31:00;;;;;;;0.70;0.10;;;21.90;99.90;;;;;;5087148;28;20460;-81
2022/06/07 09:33:30;;;;;;;0.93;0.60;;;22.00;99.90;;;;;;5089392;28;20453;-81
2022/06/07 09:36:06;;;;;;;0.70;0.10;;;22.00;99.90;;;;;;5086554;28;20437;-83
2022/06/07 09:38:38;;;;;;;0.70;0.20;;;22.20;99.90;;;;;;5084194;28;20446;-81
2022/06/07 09:44:07;;;;;;;0.70;0.10;;;22.20;99.90;;;;;;5087925;28;20437;-79
2022/06/07 09:46:36;;;;;;;0.70;0.10;;;22.20;99.90;;;;;;5087980;28;20441;-81
2022/06/07 09:49:05;;;;;;;0.70;0.10;;;22.20;99.90;;;;;;5087210;28;20472;-79
2022/06/07 09:51:39;;;;;;;0.70;0.10;;;22.20;99.90;;;;;;5087395;28;20529;-81
2022/06/07 09:54:17;;;;;;;0.70;0.10;;;22.20;99.90;;;;;;5083670;28;20503;-79
2022/06/07 09:57:00;;;;;;;0.70;0.10;;;22.30;99.90;;;;;;5081035;28;20464;-80
2022/06/07 09:59:52;;;;;;;0.70;0.20;;;22.30;99.90;;;;;;5080903;28;20445;-79
2022/06/07 10:02:45;;;;;;;0.70;0.20;;;22.20;99.90;;;;;;5082493;28;20549;-82
2022/06/07 10:05:21;;;;;;;0.70;0.17;;;22.30;99.90;;;;;;5086547;28;20446;-79
2022/06/07 10:07:57;;;;;;;0.70;0.17;;;22.30;99.90;;;;;;5085310;28;20445;-80
2022/06/07 10:10:33;;;;;;;0.70;0.20;;;22.00;99.90;;;;;;5087915;28;20493;-81
2022/06/07 10:13:15;;;;;;;0.70;0.10;;;22.10;99.90;;;;;;5087253;28;20500;-78
2022/06/07 10:15:48;;;;;;;0.70;0.10;;;22.10;99.90;;;;;;5090950;28;20947;-78
2022/06/07 10:18:26;;;;;;;0.80;0.30;;;22.20;99.90;;;;;;5089013;28;20450;-80
2022/06/07 10:21:12;;;;;;;0.70;0.10;;;22.50;99.90;;;;;;5086619;28;20469;-80
2022/06/07 10:24:04;;;;;;;2.20;2.10;;;22.40;99.90;;;;;;5078633;28;20484;-79
2022/06/07 10:26:53;;;;;;;0.70;0.20;;;22.60;99.90;;;;;;5076602;28;20540;-80
2022/06/07 10:29:34;;;;;;;0.70;0.10;;;22.60;99.90;;;;;;5053860;28;20455;-71
2022/06/07 10:32:09;;;;;;;0.70;0.10;;;22.60;99.90;;;;;;5065936;28;20461;-71
2022/06/07 10:34:40;;;;;;;0.70;0.10;;;22.50;99.90;;;;;;5056932;28;20442;-71
2022/06/07 10:37:20;;;;;;;0.70;0.20;;;22.40;99.90;;;;;;5070358;28;20442;-72
2022/06/07 10:40:04;;;;;;;0.93;0.40;;;22.50;99.90;;;;;;5071682;28;20445;-72
2022/06/07 10:42:40;;;;;;;0.70;0.10;;;22.50;99.90;;;;;;5073179;28;20564;-72
2022/06/07 10:45:19;;;;;;;0.70;0.20;;;22.50;99.90;;;;;;5073613;28;20936;-71
2022/06/07 10:47:54;;;;;;;0.70;0.10;;;22.50;99.90;;;;;;5078012;28;20441;-71
2022/06/07 10:50:27;;;;;;;0.70;0.20;;;22.50;99.90;;;;;;5077727;28;20441;-71
2022/06/07 10:53:02;;;;;;;0.80;0.23;;;22.60;99.90;;;;;;5074343;28;20460;-71
2022/06/07 10:55:37;;;;;;;0.70;0.10;;;22.50;99.90;;;;;;5073786;28;20931;-70
2022/06/07 10:58:40;;;;;;;0.70;0.13;;;22.60;99.90;;;;;;5074911;28;20532;-72
2022/06/07 11:01:15;;;;;;;0.70;0.20;;;22.90;99.90;;;;;;5073066;28;20504;-73
2022/06/07 11:03:57;;;;;;;0.70;0.10;;;22.90;99.90;;;;;;5072459;28;20482;-70
2022/06/07 11:09:26;;;;;;;0.70;0.20;;;22.90;99.90;;;;;;5072793;28;20896;-70
2022/06/07 11:11:58;;;;;;;0.80;0.27;;;23.20;99.90;;;;;;5066138;28;20480;-69
2022/06/07 11:14:51;;;;;;;0.70;0.20;;;23.20;99.90;;;;;;5065791;28;20475;-69
2022/06/07 11:17:30;;;;;;;0.70;0.20;;;23.10;99.90;;;;;;5046909;28;20454;-69
2022/06/07 11:20:01;;;;;;;1.33;0.60;;;;;;;;;;5059357;28;20835;-71
2022/06/07 11:22:35;;;;;;;0.70;0.20;;;23.00;99.90;;;;;;5066920;28;20862;-69
2022/06/07 11:25:27;;;;;;;0.70;0.10;;;23.10;99.90;;;;;;5066348;28;20461;-71
2022/06/07 11:27:59;;;;;;;0.70;0.13;;;23.30;99.90;;;;;;5062934;28;20533;-69
2022/06/07 11:30:43;;;;;;;0.70;0.10;;;23.30;99.90;;;;;;5052316;28;20454;-70
2022/06/07 11:33:46;;;;;;;0.80;0.20;;;23.50;99.90;;;;;;5067843;28;21003;-70
2022/06/07 11:36:33;;;;;;;0.70;0.20;;;23.80;99.90;;;;;;5055050;28;20450;-71
2022/06/07 11:39:19;;;;;;;0.80;0.40;;;23.60;99.90;;;;;;5051506;28;20466;-71
2022/06/07 11:41:51;;;;;;;0.90;0.30;;;23.70;99.90;;;;;;5056912;28;20482;-69
2022/06/07 11:44:55;;;;;;;0.70;0.20;;;23.70;99.90;;;;;;5060399;28;20442;-73
2022/06/07 11:47:35;;;;;;;0.70;0.20;;;23.80;99.90;;;;;;5060208;28;20533;-72
2022/06/07 11:50:28;;;;;;;0.70;0.10;;;23.90;99.90;;;;;;5061053;28;20548;-74
2022/06/07 11:53:13;;;;;;;0.70;0.20;;;24.10;99.90;;;;;;5058062;28;20455;-73
2022/06/07 11:55:44;;;;;;;0.70;0.10;;;24.00;99.90;;;;;;5052177;28;20491;-72
2022/06/07 11:58:12;;;;;;;0.70;0.20;;;23.90;99.90;;;;;;5069120;28;20823;-79
2022/06/07 12:00:49;;;;;;;0.70;0.10;;;23.80;99.90;;;;;;5082040;28;20505;-76
2022/06/07 12:03:35;;;;;;;0.70;0.20;;;23.80;99.90;;;;;;5067645;28;20527;-80
2022/06/07 12:06:26;;;;;;;0.80;0.50;;;23.50;99.90;;;;;;5074125;28;20449;-79
2022/06/07 12:09:00;;;;;;;0.90;0.20;;;23.50;99.90;;;;;;5079860;28;20453;-77
2022/06/07 12:11:32;;;;;;;0.70;0.20;;;23.10;99.90;;;;;;5080000;28;20469;-78
2022/06/07 12:14:25;;;;;;;0.70;0.20;;;23.10;99.90;;;;;;5080115;28;20445;-80
2022/06/07 12:16:57;;;;;;;3.37;3.17;;;23.30;99.90;;;;;;5094164;28;20452;-78
2022/06/07 12:19:27;;;;;;;1.37;0.30;;;23.40;99.90;;;;;;5081344;28;20438;-76
2022/06/07 12:21:59;;;;;;;0.70;0.10;;;23.50;99.90;;;;;;5076281;28;20497;-75
2022/06/07 12:24:42;;;;;;;0.70;0.20;;;23.60;99.90;;;;;;5075878;28;20568;-79
2022/06/07 12:27:27;;;;;;;0.70;0.30;;;23.60;99.90;;;;;;5071096;28;20445;-80
2022/06/07 12:30:00;;;;;;;0.70;0.20;;;23.60;99.90;;;;;;5061163;28;20529;-82
2022/06/07 12:32:34;;;;;;;2.10;2.00;;;23.70;99.90;;;;;;5057953;28;20470;-78
2022/06/07 12:35:17;;;;;;;0.70;0.20;;;23.70;99.90;;;;;;5058261;28;20461;-80
2022/06/07 12:37:48;;;;;;;0.70;0.10;;;23.80;99.90;;;;;;5070840;28;20434;-78
2022/06/07 12:40:32;;;;;;;0.80;0.23;;;23.60;99.90;;;;;;5080565;28;20508;-77
2022/06/07 12:43:00;;;;;;;0.70;0.10;;;23.50;99.90;;;;;;5080843;28;20508;-78
2022/06/07 12:45:33;;;;;;;0.70;0.20;;;23.40;99.90;;;;;;5059716;28;20878;-78
2022/06/07 12:48:09;;;;;;;0.93;0.30;;;23.30;99.90;;;;;;5073081;28;20450;-75
2022/06/07 12:50:40;;;;;;;0.70;0.20;;;23.40;99.90;;;;;;5054586;28;20446;-77
2022/06/07 12:53:18;;;;;;;0.70;0.20;;;23.50;99.90;;;;;;5060090;28;20905;-77
2022/06/07 12:55:56;;;;;;;0.70;0.20;;;23.50;99.90;;;;;;5068345;28;20442;-76
2022/06/07 12:58:28;;;;;;;0.70;0.10;;;23.70;99.90;;;;;;5064155;28;20478;-77
2022/06/07 13:00:56;;;;;;;0.70;0.20;;;24.00;99.90;;;;;;5057353;28;20446;-74
2022/06/07 13:03:28;;;;;;;0.70;0.10;;;24.00;99.90;;;;;;5053277;28;20838;-74
2022/06/07 13:06:00;;;;;;;0.70;0.10;;;24.50;99.90;;;;;;5065584;28;20466;-77
2022/06/07 13:08:36;;;;;;;0.70;0.20;;;24.70;99.90;;;;;;5061574;28;20452;-78
2022/06/07 13:11:11;;;;;;;0.70;0.10;;;24.80;99.90;;;;;;5053831;28;20533;-77
2022/06/07 13:13:41;;;;;;;0.70;0.10;;;24.70;99.90;;;;;;5054387;28;20433;-77
2022/06/07 13:16:37;;;;;;;0.80;0.20;;;24.80;99.90;;;;;;5053106;28;20446;-79
2022/06/07 13:19:20;;;;;;;0.70;0.20;;;24.70;99.90;;;;;;5056081;28;20435;-79
2022/06/07 13:21:59;;;;;;;0.70;0.30;;;24.50;99.90;;;;;;5053873;28;20454;-76
2022/06/07 13:24:28;;;;;;;0.70;0.20;;;24.10;99.90;;;;;;5059286;28;20485;-77
2022/06/07 13:27:02;;;;;;;1.40;0.40;;;24.10;99.90;;;;;;5064325;28;20476;-75
2022/06/07 13:29:33;;;;;;;0.70;0.10;;;23.80;99.90;;;;;;5056804;28;20465;-77
2022/06/07 13:32:03;;;;;;;0.70;0.10;;;23.80;99.90;;;;;;5057334;28;20841;-77
2022/06/07 13:34:33;;;;;;;0.80;0.37;;;23.70;99.90;;;;;;5056890;28;20443;-76
2022/06/07 13:37:15;;;;;;;0.70;0.20;;;23.70;99.90;;;;;;5055017;28;20453;-77